Main page
METAR-TAF:

METAR-TAF

Airports :

Prince George Airport

Prince George, British Columbia, Canada

latitude: 53-53N, longitude: 122-41W, elevation: 691 m

Current weather observation

The report was made 52 minutes ago, at 19:00 UTC
Wind 7 kt from the South/Southwest, varying between East and Southwest
Temperature 20°C
Humidity 37%
Pressure 1017 hPa
Visibility: 14.5 km
Clear sky

METAR: CYXS 191900Z AUTO 20007KT 100V230 9SM CLR 20/05 A3003 RMK SLP182 DENSITY ALT 3200FT

Time: 12:52 (19:52 UTC)

Forecast

The report was made 1 hour and 12 minutes ago, at 18:40 UTC
Forecast valid from 19 at 19 UTC to 20 at 07 UTC
Wind 3 kt from variable directions
Visibility: 10 km
Few clouds at a height of 6000 ft

TAF: CYXS 191840Z 1919/2007 VRB03KT P6SM FEW060 RMK FCST BASED ON AUTO OBS. NXT FCST BY 200100Z

Weather observations and forecasts of more than 4000 airports (METAR and TAF reports).

The available stations are represented by yellow and red dots on the map.

Hover mouse over dot to see the name of the station.

Then click to see weather observations and forecasts.

To change the map : click on the green buttons with a black cross to zoom in, on the green button with a dash to zoom out, or on the green arrows for adjacent maps.


METAR-TAF: